sensor_id;sensor_type;location;lat;lon;timestamp;P1;P2;P0
46381;PMS5003;66809;52.974;-2.514;2023-02-15T00:01:48;76.41666666666667;69.88333333333334;
46381;PMS5003;66809;52.974;-2.514;2023-02-15T00:03:49;76.55;70.15;
46381;PMS5003;66809;52.974;-2.514;2023-02-15T00:05:48;76.58333333333333;70.21666666666667;
46381;PMS5003;66809;52.974;-2.514;2023-02-15T00:07:49;76.25;69.88333333333334;
46381;PMS5003;66809;52.974;-2.514;2023-02-15T00:09:49;76.36666666666666;69.96666666666667;
46381;PMS5003;66809;52.974;-2.514;2023-02-15T00:11:49;76.56666666666666;70.11666666666666;
46381;PMS5003;66809;52.974;-2.514;2023-02-15T00:13:48;76.48333333333333;70.15;
46381;PMS5003;66809;52.974;-2.514;2023-02-15T00:15:48;76.95;70.56666666666666;
46381;PMS5003;66809;52.974;-2.514;2023-02-15T00:17:49;76.58333333333333;70.21666666666667;
46381;PMS5003;66809;52.974;-2.514;2023-02-15T00:19:49;77.23333333333333;70.68333333333334;
46381;PMS5003;66809;52.974;-2.514;2023-02-15T00:21:48;77.35;70.81666666666666;
46381;PMS5003;66809;52.974;-2.514;2023-02-15T00:23:49;77.83333333333333;71.06666666666666;
46381;PMS5003;66809;52.974;-2.514;2023-02-15T00:25:49;78.25;71.46666666666667;
46381;PMS5003;66809;52.974;-2.514;2023-02-15T00:27:49;78.58333333333333;71.73333333333333;
46381;PMS5003;66809;52.974;-2.514;2023-02-15T00:29:49;78.63333333333334;71.8;
46381;PMS5003;66809;52.974;-2.514;2023-02-15T00:31:49;78.83333333333333;71.88333333333334;
46381;PMS5003;66809;52.974;-2.514;2023-02-15T00:33:48;78.73333333333333;71.76666666666667;
46381;PMS5003;66809;52.974;-2.514;2023-02-15T00:35:55;78.98333333333333;72.05;
46381;PMS5003;66809;52.974;-2.514;2023-02-15T00:37:49;79.03333333333333;72.18333333333334;
46381;PMS5003;66809;52.974;-2.514;2023-02-15T00:39:48;78.81666666666666;71.98333333333333;
46381;PMS5003;66809;52.974;-2.514;2023-02-15T00:41:48;78.78333333333333;71.98333333333333;
46381;PMS5003;66809;52.974;-2.514;2023-02-15T00:43:48;79.26666666666667;72.41666666666667;
46381;PMS5003;66809;52.974;-2.514;2023-02-15T00:45:49;79.41666666666667;72.58333333333333;
46381;PMS5003;66809;52.974;-2.514;2023-02-15T00:47:49;79.65;72.86666666666666;
46381;PMS5003;66809;52.974;-2.514;2023-02-15T00:49:48;79.7;72.93333333333334;
46381;PMS5003;66809;52.974;-2.514;2023-02-15T00:51:48;79.81666666666666;73.18333333333334;
46381;PMS5003;66809;52.974;-2.514;2023-02-15T00:53:49;79.78333333333333;73.21666666666667;
46381;PMS5003;66809;52.974;-2.514;2023-02-15T00:55:49;79.91666666666667;73.31666666666666;
46381;PMS5003;66809;52.974;-2.514;2023-02-15T00:57:49;80.21666666666667;73.58333333333333;
46381;PMS5003;66809;52.974;-2.514;2023-02-15T00:59:48;80.7;73.93333333333334;
46381;PMS5003;66809;52.974;-2.514;2023-02-15T01:01:48;80.86666666666666;74.23333333333333;
46381;PMS5003;66809;52.974;-2.514;2023-02-15T01:03:49;80.85;74.16666666666667;
46381;PMS5003;66809;52.974;-2.514;2023-02-15T01:05:49;81.21666666666667;74.41666666666667;
46381;PMS5003;66809;52.974;-2.514;2023-02-15T01:07:48;81.81666666666666;75.05;
46381;PMS5003;66809;52.974;-2.514;2023-02-15T01:09:49;82.15;75.5;
46381;PMS5003;66809;52.974;-2.514;2023-02-15T01:11:49;82.08333333333333;75.48333333333333;
46381;PMS5003;66809;52.974;-2.514;2023-02-15T01:13:48;82.35;75.73333333333333;
46381;PMS5003;66809;52.974;-2.514;2023-02-15T01:15:52;82.56666666666666;75.91666666666667;
46381;PMS5003;66809;52.974;-2.514;2023-02-15T01:17:48;83.78333333333333;77.0;
46381;PMS5003;66809;52.974;-2.514;2023-02-15T01:19:49;83.65;76.96666666666667;
46381;PMS5003;66809;52.974;-2.514;2023-02-15T01:21:48;84.51666666666667;77.66666666666667;
46381;PMS5003;66809;52.974;-2.514;2023-02-15T01:23:48;84.31666666666666;77.6;
46381;PMS5003;66809;52.974;-2.514;2023-02-15T01:25:48;84.33333333333333;77.75;
46381;PMS5003;66809;52.974;-2.514;2023-02-15T01:27:49;84.56666666666666;77.96666666666667;
46381;PMS5003;66809;52.974;-2.514;2023-02-15T01:29:49;85.3;78.61666666666666;
46381;PMS5003;66809;52.974;-2.514;2023-02-15T01:31:49;85.63333333333334;78.91666666666667;
46381;PMS5003;66809;52.974;-2.514;2023-02-15T01:33:48;85.68333333333334;78.88333333333334;
46381;PMS5003;66809;52.974;-2.514;2023-02-15T01:35:48;85.93333333333334;79.1;
46381;PMS5003;66809;52.974;-2.514;2023-02-15T01:37:48;85.9;79.03333333333333;
46381;PMS5003;66809;52.974;-2.514;2023-02-15T01:39:49;86.15;79.23333333333333;
46381;PMS5003;66809;52.974;-2.514;2023-02-15T01:41:49;86.16666666666667;79.13333333333334;
46381;PMS5003;66809;52.974;-2.514;2023-02-15T01:43:50;85.56666666666666;78.46666666666667;
46381;PMS5003;66809;52.974;-2.514;2023-02-15T01:45:49;85.38333333333334;78.28333333333333;
46381;PMS5003;66809;52.974;-2.514;2023-02-15T01:47:49;85.43333333333334;78.31666666666666;
46381;PMS5003;66809;52.974;-2.514;2023-02-15T01:49:48;85.53333333333333;78.4;
46381;PMS5003;66809;52.974;-2.514;2023-02-15T01:51:48;85.4;78.3;
46381;PMS5003;66809;52.974;-2.514;2023-02-15T01:53:49;85.8;78.63333333333334;
46381;PMS5003;66809;52.974;-2.514;2023-02-15T01:55:49;86.11666666666666;79.06666666666666;
46381;PMS5003;66809;52.974;-2.514;2023-02-15T01:57:48;86.33333333333333;79.28333333333333;
46381;PMS5003;66809;52.974;-2.514;2023-02-15T01:59:49;86.45;79.48333333333333;
46381;PMS5003;66809;52.974;-2.514;2023-02-15T02:01:48;86.28333333333333;79.38333333333334;
46381;PMS5003;66809;52.974;-2.514;2023-02-15T02:03:53;86.08333333333333;79.23333333333333;
46381;PMS5003;66809;52.974;-2.514;2023-02-15T02:05:49;85.51666666666667;78.81666666666666;
46381;PMS5003;66809;52.974;-2.514;2023-02-15T02:07:50;85.15;78.38333333333334;
46381;PMS5003;66809;52.974;-2.514;2023-02-15T02:09:48;85.05;78.13333333333334;
46381;PMS5003;66809;52.974;-2.514;2023-02-15T02:11:48;85.65;78.48333333333333;
46381;PMS5003;66809;52.974;-2.514;2023-02-15T02:13:48;85.58333333333333;78.43333333333334;
46381;PMS5003;66809;52.974;-2.514;2023-02-15T02:15:51;85.28333333333333;78.21666666666667;
46381;PMS5003;66809;52.974;-2.514;2023-02-15T02:17:53;85.2;78.15;
46381;PMS5003;66809;52.974;-2.514;2023-02-15T02:19:55;85.06666666666666;78.0;
46381;PMS5003;66809;52.974;-2.514;2023-02-15T02:22:08;84.65;77.71666666666667;
46381;PMS5003;66809;52.974;-2.514;2023-02-15T02:23:51;84.7;77.76666666666667;
46381;PMS5003;66809;52.974;-2.514;2023-02-15T02:30:36;55.5;52.785714285714285;
46381;PMS5003;66809;52.974;-2.514;2023-02-15T02:32:43;59.0;55.5625;
46381;PMS5003;66809;52.974;-2.514;2023-02-15T02:34:33;61.27777777777778;57.333333333333336;
46381;PMS5003;66809;52.974;-2.514;2023-02-15T02:36:33;63.65;59.35;
46381;PMS5003;66809;52.974;-2.514;2023-02-15T02:38:36;65.0909090909091;60.45454545454545;
46381;PMS5003;66809;52.974;-2.514;2023-02-15T02:40:35;65.58333333333333;61.125;
46381;PMS5003;66809;52.974;-2.514;2023-02-15T02:42:34;66.8076923076923;62.15384615384615;
46381;PMS5003;66809;52.974;-2.514;2023-02-15T02:44:34;68.07142857142857;63.32142857142857;
46381;PMS5003;66809;52.974;-2.514;2023-02-15T02:46:33;69.2;64.33333333333333;
46381;PMS5003;66809;52.974;-2.514;2023-02-15T02:48:33;70.03125;65.25;
46381;PMS5003;66809;52.974;-2.514;2023-02-15T02:50:32;70.70588235294117;65.8529411764706;
46381;PMS5003;66809;52.974;-2.514;2023-02-15T02:52:34;71.55555555555556;66.58333333333333;
46381;PMS5003;66809;52.974;-2.514;2023-02-15T02:54:32;72.05263157894737;67.10526315789474;
46381;PMS5003;66809;52.974;-2.514;2023-02-15T02:56:34;72.75;67.65;
46381;PMS5003;66809;52.974;-2.514;2023-02-15T02:58:34;73.14285714285714;67.95238095238095;
46381;PMS5003;66809;52.974;-2.514;2023-02-15T03:00:33;73.36363636363636;68.11363636363636;
46381;PMS5003;66809;52.974;-2.514;2023-02-15T03:02:34;73.54347826086956;68.30434782608695;
46381;PMS5003;66809;52.974;-2.514;2023-02-15T03:04:34;73.70833333333333;68.4375;
46381;PMS5003;66809;52.974;-2.514;2023-02-15T03:06:34;73.84;68.46;
46381;PMS5003;66809;52.974;-2.514;2023-02-15T03:08:33;74.0576923076923;68.63461538461539;
46381;PMS5003;66809;52.974;-2.514;2023-02-15T03:10:32;74.22222222222223;68.88888888888889;
46381;PMS5003;66809;52.974;-2.514;2023-02-15T03:12:33;74.30357142857143;69.01785714285714;
46381;PMS5003;66809;52.974;-2.514;2023-02-15T03:14:32;74.44827586206897;69.08620689655173;
46381;PMS5003;66809;52.974;-2.514;2023-02-15T03:16:32;74.68333333333334;69.25;
46381;PMS5003;66809;52.974;-2.514;2023-02-15T03:18:34;77.53333333333333;71.91666666666667;
46381;PMS5003;66809;52.974;-2.514;2023-02-15T03:20:33;78.58333333333333;72.75;
46381;PMS5003;66809;52.974;-2.514;2023-02-15T03:22:33;79.3;73.33333333333333;
46381;PMS5003;66809;52.974;-2.514;2023-02-15T03:24:33;80.25;74.0;
46381;PMS5003;66809;52.974;-2.514;2023-02-15T03:26:32;81.01666666666667;74.7;
46381;PMS5003;66809;52.974;-2.514;2023-02-15T03:28:33;81.86666666666666;75.43333333333334;
46381;PMS5003;66809;52.974;-2.514;2023-02-15T03:30:32;81.65;75.28333333333333;
46381;PMS5003;66809;52.974;-2.514;2023-02-15T03:32:33;81.48333333333333;75.23333333333333;
46381;PMS5003;66809;52.974;-2.514;2023-02-15T03:34:32;81.9;75.55;
46381;PMS5003;66809;52.974;-2.514;2023-02-15T03:36:33;81.73333333333333;75.4;
46381;PMS5003;66809;52.974;-2.514;2023-02-15T03:38:34;81.98333333333333;75.65;
46381;PMS5003;66809;52.974;-2.514;2023-02-15T03:40:33;82.33333333333333;75.86666666666666;
46381;PMS5003;66809;52.974;-2.514;2023-02-15T03:42:32;82.56666666666666;76.08333333333333;
46381;PMS5003;66809;52.974;-2.514;2023-02-15T03:44:34;82.78333333333333;76.13333333333334;
46381;PMS5003;66809;52.974;-2.514;2023-02-15T03:46:33;82.71666666666667;76.13333333333334;
46381;PMS5003;66809;52.974;-2.514;2023-02-15T03:48:33;83.21666666666667;76.36666666666666;
46381;PMS5003;66809;52.974;-2.514;2023-02-15T03:50:32;83.6;76.63333333333334;
46381;PMS5003;66809;52.974;-2.514;2023-02-15T03:52:32;83.85;76.81666666666666;
46381;PMS5003;66809;52.974;-2.514;2023-02-15T03:54:33;84.4;77.06666666666666;
46381;PMS5003;66809;52.974;-2.514;2023-02-15T03:56:33;84.43333333333334;77.15;
46381;PMS5003;66809;52.974;-2.514;2023-02-15T03:58:32;84.33333333333333;77.11666666666666;
46381;PMS5003;66809;52.974;-2.514;2023-02-15T04:00:34;84.23333333333333;77.16666666666667;
46381;PMS5003;66809;52.974;-2.514;2023-02-15T04:02:33;84.56666666666666;77.41666666666667;
46381;PMS5003;66809;52.974;-2.514;2023-02-15T04:04:34;84.65;77.55;
46381;PMS5003;66809;52.974;-2.514;2023-02-15T04:06:32;85.06666666666666;78.05;
46381;PMS5003;66809;52.974;-2.514;2023-02-15T04:08:32;85.15;78.15;
46381;PMS5003;66809;52.974;-2.514;2023-02-15T04:10:32;85.48333333333333;78.33333333333333;
46381;PMS5003;66809;52.974;-2.514;2023-02-15T04:12:32;86.05;78.78333333333333;
46381;PMS5003;66809;52.974;-2.514;2023-02-15T04:14:32;86.16666666666667;78.93333333333334;
46381;PMS5003;66809;52.974;-2.514;2023-02-15T04:16:32;86.11666666666666;78.93333333333334;
46381;PMS5003;66809;52.974;-2.514;2023-02-15T04:18:33;86.2;79.06666666666666;
46381;PMS5003;66809;52.974;-2.514;2023-02-15T04:20:32;86.2;79.1;
46381;PMS5003;66809;52.974;-2.514;2023-02-15T04:22:32;86.4;79.21666666666667;
46381;PMS5003;66809;52.974;-2.514;2023-02-15T04:24:32;86.16666666666667;79.06666666666666;
46381;PMS5003;66809;52.974;-2.514;2023-02-15T04:26:32;86.38333333333334;79.25;
46381;PMS5003;66809;52.974;-2.514;2023-02-15T04:28:32;86.2;79.1;
46381;PMS5003;66809;52.974;-2.514;2023-02-15T04:30:33;86.38333333333334;79.33333333333333;
46381;PMS5003;66809;52.974;-2.514;2023-02-15T04:32:32;86.81666666666666;79.73333333333333;
46381;PMS5003;66809;52.974;-2.514;2023-02-15T04:34:32;86.8;79.8;
46381;PMS5003;66809;52.974;-2.514;2023-02-15T04:36:32;87.3;80.28333333333333;
46381;PMS5003;66809;52.974;-2.514;2023-02-15T04:38:32;87.36666666666666;80.43333333333334;
46381;PMS5003;66809;52.974;-2.514;2023-02-15T04:40:32;87.68333333333334;80.76666666666667;
46381;PMS5003;66809;52.974;-2.514;2023-02-15T04:42:32;88.06666666666666;81.08333333333333;
46381;PMS5003;66809;52.974;-2.514;2023-02-15T04:44:32;88.16666666666667;81.25;
46381;PMS5003;66809;52.974;-2.514;2023-02-15T04:46:32;88.55;81.5;
46381;PMS5003;66809;52.974;-2.514;2023-02-15T04:48:32;88.33333333333333;81.5;
46381;PMS5003;66809;52.974;-2.514;2023-02-15T04:50:32;88.1;81.45;
46381;PMS5003;66809;52.974;-2.514;2023-02-15T04:52:32;87.78333333333333;81.23333333333333;
46381;PMS5003;66809;52.974;-2.514;2023-02-15T04:54:32;88.13333333333334;81.61666666666666;
46381;PMS5003;66809;52.974;-2.514;2023-02-15T04:56:33;88.63333333333334;82.0;
46381;PMS5003;66809;52.974;-2.514;2023-02-15T04:58:32;89.31666666666666;82.51666666666667;
46381;PMS5003;66809;52.974;-2.514;2023-02-15T05:00:32;90.6;83.45;
46381;PMS5003;66809;52.974;-2.514;2023-02-15T05:02:32;90.88333333333334;83.68333333333334;
46381;PMS5003;66809;52.974;-2.514;2023-02-15T05:04:33;91.63333333333334;84.25;
46381;PMS5003;66809;52.974;-2.514;2023-02-15T05:06:32;91.65;84.26666666666667;
46381;PMS5003;66809;52.974;-2.514;2023-02-15T05:08:32;92.26666666666667;84.76666666666667;
46381;PMS5003;66809;52.974;-2.514;2023-02-15T05:10:32;92.61666666666666;85.0;
46381;PMS5003;66809;52.974;-2.514;2023-02-15T05:12:32;92.53333333333333;84.95;
46381;PMS5003;66809;52.974;-2.514;2023-02-15T05:14:32;92.91666666666667;85.25;
46381;PMS5003;66809;52.974;-2.514;2023-02-15T05:16:32;93.68333333333334;85.91666666666667;
46381;PMS5003;66809;52.974;-2.514;2023-02-15T05:18:33;93.96666666666667;86.13333333333334;
46381;PMS5003;66809;52.974;-2.514;2023-02-15T05:20:32;94.53333333333333;86.55;
46381;PMS5003;66809;52.974;-2.514;2023-02-15T05:22:32;94.41666666666667;86.36666666666666;
46381;PMS5003;66809;52.974;-2.514;2023-02-15T05:24:32;94.91666666666667;86.83333333333333;
46381;PMS5003;66809;52.974;-2.514;2023-02-15T05:26:32;95.55;87.38333333333334;
46381;PMS5003;66809;52.974;-2.514;2023-02-15T05:28:33;95.85;87.71666666666667;
46381;PMS5003;66809;52.974;-2.514;2023-02-15T05:30:32;96.45;88.18333333333334;
46381;PMS5003;66809;52.974;-2.514;2023-02-15T05:32:33;96.7;88.4;
46381;PMS5003;66809;52.974;-2.514;2023-02-15T05:34:33;96.85;88.55;
46381;PMS5003;66809;52.974;-2.514;2023-02-15T05:36:32;97.25;88.8;
46381;PMS5003;66809;52.974;-2.514;2023-02-15T05:38:32;97.56666666666666;89.08333333333333;
46381;PMS5003;66809;52.974;-2.514;2023-02-15T05:40:32;97.25;88.83333333333333;
46381;PMS5003;66809;52.974;-2.514;2023-02-15T05:42:32;96.98333333333333;88.63333333333334;
46381;PMS5003;66809;52.974;-2.514;2023-02-15T05:44:32;97.08333333333333;88.75;
46381;PMS5003;66809;52.974;-2.514;2023-02-15T05:46:32;97.4;89.08333333333333;
46381;PMS5003;66809;52.974;-2.514;2023-02-15T05:48:32;98.08333333333333;89.63333333333334;
46381;PMS5003;66809;52.974;-2.514;2023-02-15T05:50:32;98.86666666666666;90.2;
46381;PMS5003;66809;52.974;-2.514;2023-02-15T05:52:32;99.51666666666667;90.73333333333333;
46381;PMS5003;66809;52.974;-2.514;2023-02-15T05:54:32;99.6;90.86666666666666;
46381;PMS5003;66809;52.974;-2.514;2023-02-15T05:56:32;99.5;90.8;
46381;PMS5003;66809;52.974;-2.514;2023-02-15T05:58:33;99.76666666666667;91.1;
46381;PMS5003;66809;52.974;-2.514;2023-02-15T06:00:32;99.33333333333333;90.85;
46381;PMS5003;66809;52.974;-2.514;2023-02-15T06:02:33;99.2;90.78333333333333;
46381;PMS5003;66809;52.974;-2.514;2023-02-15T06:04:32;98.75;90.51666666666667;
46381;PMS5003;66809;52.974;-2.514;2023-02-15T06:06:32;98.9;90.65;
46381;PMS5003;66809;52.974;-2.514;2023-02-15T06:08:33;98.91666666666667;90.6;
46381;PMS5003;66809;52.974;-2.514;2023-02-15T06:10:32;98.91666666666667;90.65;
46381;PMS5003;66809;52.974;-2.514;2023-02-15T06:12:32;99.0;90.71666666666667;
46381;PMS5003;66809;52.974;-2.514;2023-02-15T06:14:32;99.1;90.91666666666667;
46381;PMS5003;66809;52.974;-2.514;2023-02-15T06:16:32;98.66666666666667;90.6;
46381;PMS5003;66809;52.974;-2.514;2023-02-15T06:18:32;98.7;90.63333333333334;
46381;PMS5003;66809;52.974;-2.514;2023-02-15T06:20:32;98.41666666666667;90.43333333333334;
46381;PMS5003;66809;52.974;-2.514;2023-02-15T06:22:32;98.46666666666667;90.65;
46381;PMS5003;66809;52.974;-2.514;2023-02-15T06:24:32;98.25;90.48333333333333;
46381;PMS5003;66809;52.974;-2.514;2023-02-15T06:26:32;97.95;90.18333333333334;
46381;PMS5003;66809;52.974;-2.514;2023-02-15T06:28:32;98.23333333333333;90.45;
46381;PMS5003;66809;52.974;-2.514;2023-02-15T06:30:33;97.88333333333334;90.21666666666667;
46381;PMS5003;66809;52.974;-2.514;2023-02-15T06:32:32;97.7;90.11666666666666;
46381;PMS5003;66809;52.974;-2.514;2023-02-15T06:34:32;97.61666666666666;90.05;
46381;PMS5003;66809;52.974;-2.514;2023-02-15T06:36:32;97.36666666666666;89.91666666666667;
46381;PMS5003;66809;52.974;-2.514;2023-02-15T06:38:32;97.51666666666667;89.95;
46381;PMS5003;66809;52.974;-2.514;2023-02-15T06:40:32;98.05;90.43333333333334;
46381;PMS5003;66809;52.974;-2.514;2023-02-15T06:42:32;98.41666666666667;90.8;
46381;PMS5003;66809;52.974;-2.514;2023-02-15T06:44:32;98.61666666666666;90.96666666666667;
46381;PMS5003;66809;52.974;-2.514;2023-02-15T06:46:32;98.38333333333334;90.66666666666667;
46381;PMS5003;66809;52.974;-2.514;2023-02-15T06:48:32;98.03333333333333;90.38333333333334;
46381;PMS5003;66809;52.974;-2.514;2023-02-15T06:50:32;97.68333333333334;90.18333333333334;
46381;PMS5003;66809;52.974;-2.514;2023-02-15T06:52:32;98.15;90.56666666666666;
46381;PMS5003;66809;52.974;-2.514;2023-02-15T06:54:32;97.93333333333334;90.41666666666667;
46381;PMS5003;66809;52.974;-2.514;2023-02-15T06:56:32;98.31666666666666;90.81666666666666;
46381;PMS5003;66809;52.974;-2.514;2023-02-15T06:58:32;98.51666666666667;90.95;
46381;PMS5003;66809;52.974;-2.514;2023-02-15T07:00:32;98.75;91.26666666666667;
46381;PMS5003;66809;52.974;-2.514;2023-02-15T07:02:33;99.36666666666666;91.76666666666667;
46381;PMS5003;66809;52.974;-2.514;2023-02-15T07:04:32;99.76666666666667;92.1;
46381;PMS5003;66809;52.974;-2.514;2023-02-15T07:06:32;99.96666666666667;92.2;
46381;PMS5003;66809;52.974;-2.514;2023-02-15T07:08:33;99.96666666666667;92.33333333333333;
46381;PMS5003;66809;52.974;-2.514;2023-02-15T07:10:32;99.95;92.28333333333333;
46381;PMS5003;66809;52.974;-2.514;2023-02-15T07:12:32;100.31666666666666;92.63333333333334;
46381;PMS5003;66809;52.974;-2.514;2023-02-15T07:14:32;100.41666666666667;92.75;
46381;PMS5003;66809;52.974;-2.514;2023-02-15T07:16:32;100.81666666666666;93.11666666666666;
46381;PMS5003;66809;52.974;-2.514;2023-02-15T07:18:32;100.9;93.03333333333333;
46381;PMS5003;66809;52.974;-2.514;2023-02-15T07:20:32;101.08333333333333;93.23333333333333;
46381;PMS5003;66809;52.974;-2.514;2023-02-15T07:22:32;101.2;93.31666666666666;
46381;PMS5003;66809;52.974;-2.514;2023-02-15T07:24:32;101.21666666666667;93.36666666666666;
46381;PMS5003;66809;52.974;-2.514;2023-02-15T07:26:32;101.38333333333334;93.45;
46381;PMS5003;66809;52.974;-2.514;2023-02-15T07:28:32;101.46666666666667;93.4;
46381;PMS5003;66809;52.974;-2.514;2023-02-15T07:30:32;102.16666666666667;93.86666666666666;
46381;PMS5003;66809;52.974;-2.514;2023-02-15T07:32:32;102.51666666666667;94.05;
46381;PMS5003;66809;52.974;-2.514;2023-02-15T07:34:32;103.03333333333333;94.56666666666666;
46381;PMS5003;66809;52.974;-2.514;2023-02-15T07:36:32;103.21666666666667;94.78333333333333;
46381;PMS5003;66809;52.974;-2.514;2023-02-15T07:38:33;103.2;94.93333333333334;
46381;PMS5003;66809;52.974;-2.514;2023-02-15T07:40:32;103.63333333333334;95.3;
46381;PMS5003;66809;52.974;-2.514;2023-02-15T07:42:32;103.78333333333333;95.33333333333333;
46381;PMS5003;66809;52.974;-2.514;2023-02-15T07:44:32;104.01666666666667;95.53333333333333;
46381;PMS5003;66809;52.974;-2.514;2023-02-15T07:46:33;104.7;96.1;
46381;PMS5003;66809;52.974;-2.514;2023-02-15T07:48:32;105.2;96.4;
46381;PMS5003;66809;52.974;-2.514;2023-02-15T07:50:32;105.85;96.9;
46381;PMS5003;66809;52.974;-2.514;2023-02-15T07:52:32;105.5;96.7;
46381;PMS5003;66809;52.974;-2.514;2023-02-15T07:54:32;105.45;96.71666666666667;
46381;PMS5003;66809;52.974;-2.514;2023-02-15T07:56:32;104.86666666666666;96.15;
46381;PMS5003;66809;52.974;-2.514;2023-02-15T07:58:32;104.38333333333334;95.78333333333333;
46381;PMS5003;66809;52.974;-2.514;2023-02-15T08:00:32;104.3;95.56666666666666;
46381;PMS5003;66809;52.974;-2.514;2023-02-15T08:02:33;103.91666666666667;95.23333333333333;
46381;PMS5003;66809;52.974;-2.514;2023-02-15T08:04:32;103.96666666666667;95.16666666666667;
46381;PMS5003;66809;52.974;-2.514;2023-02-15T08:06:33;104.23333333333333;95.33333333333333;
46381;PMS5003;66809;52.974;-2.514;2023-02-15T08:08:33;104.33333333333333;95.43333333333334;
46381;PMS5003;66809;52.974;-2.514;2023-02-15T08:10:32;104.35;95.56666666666666;
46381;PMS5003;66809;52.974;-2.514;2023-02-15T08:12:32;104.45;95.56666666666666;
46381;PMS5003;66809;52.974;-2.514;2023-02-15T08:14:33;104.91666666666667;95.76666666666667;
46381;PMS5003;66809;52.974;-2.514;2023-02-15T08:16:38;104.83333333333333;95.56666666666666;
46381;PMS5003;66809;52.974;-2.514;2023-02-15T08:18:33;105.08333333333333;95.9;
46381;PMS5003;66809;52.974;-2.514;2023-02-15T08:20:32;105.43333333333334;96.21666666666667;
46381;PMS5003;66809;52.974;-2.514;2023-02-15T08:22:32;105.98333333333333;96.63333333333334;
46381;PMS5003;66809;52.974;-2.514;2023-02-15T08:24:32;106.21666666666667;96.85;
46381;PMS5003;66809;52.974;-2.514;2023-02-15T08:26:32;106.03333333333333;96.83333333333333;
46381;PMS5003;66809;52.974;-2.514;2023-02-15T08:28:32;106.3;97.13333333333334;
46381;PMS5003;66809;52.974;-2.514;2023-02-15T08:30:32;106.13333333333334;97.06666666666666;
46381;PMS5003;66809;52.974;-2.514;2023-02-15T08:32:32;106.0;97.01666666666667;
46381;PMS5003;66809;52.974;-2.514;2023-02-15T08:34:33;106.03333333333333;96.96666666666667;
46381;PMS5003;66809;52.974;-2.514;2023-02-15T08:36:32;106.15;96.95;
46381;PMS5003;66809;52.974;-2.514;2023-02-15T08:38:33;106.21666666666667;96.86666666666666;
46381;PMS5003;66809;52.974;-2.514;2023-02-15T08:40:32;106.06666666666666;96.7;
46381;PMS5003;66809;52.974;-2.514;2023-02-15T08:42:32;106.1;96.8;
46381;PMS5003;66809;52.974;-2.514;2023-02-15T08:44:32;106.18333333333334;96.88333333333334;
46381;PMS5003;66809;52.974;-2.514;2023-02-15T08:46:33;105.93333333333334;96.7;
46381;PMS5003;66809;52.974;-2.514;2023-02-15T08:48:35;106.0;96.83333333333333;
46381;PMS5003;66809;52.974;-2.514;2023-02-15T08:50:32;105.43333333333334;96.33333333333333;
46381;PMS5003;66809;52.974;-2.514;2023-02-15T08:52:32;105.33333333333333;96.25;
46381;PMS5003;66809;52.974;-2.514;2023-02-15T08:54:32;105.41666666666667;96.31666666666666;
46381;PMS5003;66809;52.974;-2.514;2023-02-15T08:56:33;105.83333333333333;96.71666666666667;
46381;PMS5003;66809;52.974;-2.514;2023-02-15T08:58:32;106.18333333333334;97.03333333333333;
46381;PMS5003;66809;52.974;-2.514;2023-02-15T09:00:32;106.4;97.26666666666667;
46381;PMS5003;66809;52.974;-2.514;2023-02-15T09:02:32;106.65;97.4;
46381;PMS5003;66809;52.974;-2.514;2023-02-15T09:04:32;106.78333333333333;97.58333333333333;
46381;PMS5003;66809;52.974;-2.514;2023-02-15T09:06:32;107.05;97.73333333333333;
46381;PMS5003;66809;52.974;-2.514;2023-02-15T09:08:32;107.25;97.96666666666667;
46381;PMS5003;66809;52.974;-2.514;2023-02-15T09:10:32;107.58333333333333;98.28333333333333;
46381;PMS5003;66809;52.974;-2.514;2023-02-15T09:12:32;107.53333333333333;98.45;
46381;PMS5003;66809;52.974;-2.514;2023-02-15T09:14:33;107.1;98.23333333333333;
46381;PMS5003;66809;52.974;-2.514;2023-02-15T09:16:33;106.98333333333333;98.26666666666667;
46381;PMS5003;66809;52.974;-2.514;2023-02-15T09:18:32;106.9;98.11666666666666;
46381;PMS5003;66809;52.974;-2.514;2023-02-15T09:20:34;107.03333333333333;98.21666666666667;
46381;PMS5003;66809;52.974;-2.514;2023-02-15T09:22:33;107.16666666666667;98.3;
46381;PMS5003;66809;52.974;-2.514;2023-02-15T09:24:32;107.28333333333333;98.33333333333333;
46381;PMS5003;66809;52.974;-2.514;2023-02-15T09:26:33;107.55;98.45;
46381;PMS5003;66809;52.974;-2.514;2023-02-15T09:28:32;107.41666666666667;98.31666666666666;
46381;PMS5003;66809;52.974;-2.514;2023-02-15T09:30:32;107.25;98.16666666666667;
46381;PMS5003;66809;52.974;-2.514;2023-02-15T09:32:32;107.61666666666666;98.45;
46381;PMS5003;66809;52.974;-2.514;2023-02-15T09:34:32;107.33333333333333;98.3;
46381;PMS5003;66809;52.974;-2.514;2023-02-15T09:36:33;107.25;98.36666666666666;
46381;PMS5003;66809;52.974;-2.514;2023-02-15T09:38:32;107.28333333333333;98.45;
46381;PMS5003;66809;52.974;-2.514;2023-02-15T09:40:33;107.36666666666666;98.45;